Time;durP1;ratioP1;P1;durP2;ratioP2;P2;SDS_P1;SDS_P2;PMS_P1;PMS_P2;Temp;Humidity;BMP_temperature;BMP_pressure;BME280_temperature;BME280_humidity;BME280_pressure;Samples;Min_cycle;Max_cycle;Signal;HPM_P1;HPM_P2
2022/10/11 00:02:00;;;;;;;6.05;2.90;;;10.90;62.40;;;;;;4789734;29;20047;-45
2022/10/11 00:04:27;;;;;;;5.80;2.80;;;10.90;62.50;;;;;;4794471;29;20512;-44
2022/10/11 00:06:54;;;;;;;6.10;2.90;;;10.90;62.50;;;;;;4803982;29;20046;-44
2022/10/11 00:09:21;;;;;;;6.03;3.20;;;10.90;62.50;;;;;;4798384;29;20062;-45
2022/10/11 00:11:48;;;;;;;6.43;2.83;;;10.80;62.50;;;;;;4793796;29;20126;-47
2022/10/11 00:14:15;;;;;;;4.70;2.80;;;10.80;62.50;;;;;;4785300;29;20051;-48
2022/10/11 00:16:43;;;;;;;2.88;2.55;;;10.80;62.50;;;;;;4789972;29;20051;-44
2022/10/11 00:19:10;;;;;;;4.55;3.00;;;10.70;62.40;;;;;;4795168;29;20065;-45
2022/10/11 00:21:37;;;;;;;4.88;3.20;;;10.80;62.50;;;;;;4788112;29;20412;-45
2022/10/11 00:24:04;;;;;;;3.55;2.50;;;10.80;62.80;;;;;;4784489;29;20047;-45
2022/10/11 00:26:31;;;;;;;3.83;2.60;;;10.70;62.40;;;;;;4786908;29;20043;-44
2022/10/11 00:28:57;;;;;;;4.63;3.05;;;10.70;62.50;;;;;;4796145;29;20527;-47
2022/10/11 00:31:24;;;;;;;3.65;2.80;;;10.70;62.40;;;;;;4785356;29;20050;-46
2022/10/11 00:33:53;;;;;;;3.25;2.92;;;10.70;62.50;;;;;;4784362;29;20051;-45
2022/10/11 00:36:23;;;;;;;6.13;3.65;;;10.60;62.50;;;;;;4788497;29;20506;-45
2022/10/11 00:38:50;;;;;;;4.72;3.33;;;10.60;62.70;;;;;;4795111;29;20059;-50
2022/10/11 00:41:17;;;;;;;3.88;2.90;;;10.60;62.80;;;;;;4785295;29;20047;-50
2022/10/11 00:43:44;;;;;;;3.08;2.75;;;10.60;62.70;;;;;;4784407;29;20067;-49
2022/10/11 00:46:17;;;;;;;3.20;2.53;;;10.60;62.80;;;;;;4785207;29;20472;-47
2022/10/11 00:48:54;;;;;;;3.28;2.67;;;10.50;62.80;;;;;;4789408;29;20051;-48
2022/10/11 00:51:45;;;;;;;3.55;2.35;;;10.50;62.80;;;;;;4784096;29;20527;-45
2022/10/11 00:54:17;;;;;;;4.43;3.25;;;10.50;62.90;;;;;;4789682;29;20055;-46
2022/10/11 00:56:48;;;;;;;6.30;2.92;;;10.50;62.90;;;;;;4791230;29;20051;-46
2022/10/11 00:59:23;;;;;;;5.10;2.90;;;10.50;62.80;;;;;;4782484;29;20051;-45
2022/10/11 01:01:51;;;;;;;3.95;2.85;;;10.50;62.80;;;;;;4785187;29;20053;-50
2022/10/11 01:04:17;;;;;;;5.05;2.45;;;10.40;62.80;;;;;;4792698;29;20069;-50
2022/10/11 01:06:45;;;;;;;5.03;3.63;;;10.40;62.80;;;;;;4793831;29;20048;-49
2022/10/11 01:09:13;;;;;;;3.85;3.13;;;10.40;62.80;;;;;;4783990;29;20047;-46
2022/10/11 01:11:42;;;;;;;3.28;2.97;;;10.40;62.70;;;;;;4787894;29;20055;-45
2022/10/11 01:14:39;;;;;;;4.97;2.83;;;10.40;62.70;;;;;;4792317;29;20058;-44
2022/10/11 01:17:18;;;;;;;5.45;3.05;;;10.40;62.80;;;;;;4779158;29;20062;-45
2022/10/11 01:20:13;;;;;;;3.88;2.83;;;10.30;62.80;;;;;;4792771;29;20046;-48
2022/10/11 01:23:17;;;;;;;4.90;3.10;;;10.30;62.90;;;;;;4792593;29;20051;-45
2022/10/11 01:26:19;;;;;;;4.78;2.75;;;10.30;63.00;;;;;;4794996;29;20065;-45
2022/10/11 01:29:18;;;;;;;6.60;3.22;;;10.30;62.80;;;;;;4784621;29;20058;-44
2022/10/11 01:32:05;;;;;;;3.60;3.03;;;10.20;62.80;;;;;;4789192;29;20047;-47
2022/10/11 01:34:39;;;;;;;4.65;3.25;;;10.20;62.50;;;;;;4797301;29;20061;-46
2022/10/11 01:37:30;;;;;;;4.47;2.75;;;10.20;62.60;;;;;;4784969;29;20520;-45
2022/10/11 01:40:09;;;;;;;5.30;3.17;;;10.20;62.60;;;;;;4784566;29;20047;-45
2022/10/11 01:42:38;;;;;;;4.85;3.80;;;10.10;62.70;;;;;;4787199;29;20047;-44
2022/10/11 01:45:12;;;;;;;6.05;4.00;;;10.10;62.80;;;;;;4784152;29;20054;-45
2022/10/11 01:47:41;;;;;;;5.82;3.83;;;10.10;62.90;;;;;;4784374;29;20054;-45
2022/10/11 01:50:35;;;;;;;6.53;3.85;;;10.00;62.90;;;;;;4787934;29;20049;-44
2022/10/11 01:53:16;;;;;;;3.38;3.03;;;10.10;63.40;;;;;;4789907;29;20543;-45
2022/10/11 01:55:51;;;;;;;3.92;3.08;;;10.10;63.20;;;;;;4787828;29;20051;-47
2022/10/11 01:58:35;;;;;;;3.22;2.63;;;10.00;63.00;;;;;;4801548;29;20492;-46
2022/10/11 02:01:29;;;;;;;3.78;3.08;;;10.00;63.10;;;;;;4789697;29;20043;-49
2022/10/11 02:04:28;;;;;;;3.90;3.03;;;10.00;63.40;;;;;;4792043;29;20048;-49
2022/10/11 02:07:02;;;;;;;2.95;2.60;;;10.00;63.10;;;;;;4787834;29;20047;-46
2022/10/11 02:09:41;;;;;;;3.53;2.78;;;10.00;63.10;;;;;;4791187;29;20081;-45
2022/10/11 02:12:11;;;;;;;4.00;2.33;;;10.00;63.20;;;;;;4793742;29;20547;-45
2022/10/11 02:14:49;;;;;;;2.55;2.35;;;9.90;63.00;;;;;;4786313;29;20672;-45
2022/10/11 02:17:22;;;;;;;4.50;2.80;;;9.90;62.90;;;;;;4791417;29;20051;-47
2022/10/11 02:19:57;;;;;;;3.83;2.85;;;9.90;63.00;;;;;;4793453;29;20053;-46
2022/10/11 02:22:29;;;;;;;4.90;3.78;;;9.90;63.00;;;;;;4787216;29;20051;-44
2022/10/11 02:24:59;;;;;;;4.63;2.75;;;9.80;63.00;;;;;;4786333;29;20049;-49
2022/10/11 02:27:31;;;;;;;4.28;2.80;;;9.80;63.00;;;;;;4792247;29;20046;-44
2022/10/11 02:30:00;;;;;;;3.72;2.75;;;9.80;62.80;;;;;;4792406;29;20051;-46
2022/10/11 02:32:29;;;;;;;3.50;2.70;;;9.80;62.80;;;;;;4783422;29;20064;-45
2022/10/11 02:34:58;;;;;;;4.22;2.70;;;9.80;62.80;;;;;;4786039;30;20509;-44
2022/10/11 02:37:43;;;;;;;3.25;2.92;;;9.70;62.80;;;;;;4788760;29;20051;-49
2022/10/11 02:40:24;;;;;;;3.90;2.60;;;9.70;63.10;;;;;;4797705;29;20050;-45
2022/10/11 02:43:22;;;;;;;4.28;3.00;;;9.70;63.00;;;;;;4787249;29;20126;-48
2022/10/11 02:45:58;;;;;;;3.92;2.70;;;9.70;62.90;;;;;;4784460;29;20059;-45
2022/10/11 02:48:29;;;;;;;3.63;2.58;;;9.60;62.90;;;;;;4795885;29;20043;-46
2022/10/11 02:50:57;;;;;;;2.92;2.58;;;9.60;62.80;;;;;;4793321;29;20047;-46
2022/10/11 02:53:27;;;;;;;3.78;2.50;;;9.60;62.80;;;;;;4786318;29;20146;-45
2022/10/11 02:55:56;;;;;;;3.03;2.72;;;9.60;62.90;;;;;;4787374;29;20493;-46
2022/10/11 02:58:27;;;;;;;3.80;2.70;;;9.60;62.90;;;;;;4792971;29;20074;-45
2022/10/11 03:00:53;;;;;;;3.45;2.53;;;9.60;62.80;;;;;;4786524;29;20096;-45
2022/10/11 03:03:20;;;;;;;4.45;2.80;;;9.50;62.80;;;;;;4785998;29;20043;-45
2022/10/11 03:05:47;;;;;;;2.97;2.65;;;9.50;62.80;;;;;;4788992;29;20505;-46
2022/10/11 03:08:15;;;;;;;3.78;2.97;;;9.50;62.80;;;;;;4787193;29;20568;-45
2022/10/11 03:10:45;;;;;;;3.75;3.42;;;9.50;62.80;;;;;;4785951;29;20618;-48
2022/10/11 03:13:14;;;;;;;5.63;3.20;;;9.50;62.80;;;;;;4786988;29;20425;-44
2022/10/11 03:15:51;;;;;;;4.85;2.95;;;9.40;62.80;;;;;;4788334;29;20077;-45
2022/10/11 03:18:34;;;;;;;3.78;2.88;;;9.40;62.80;;;;;;4786135;29;20051;-46
2022/10/11 03:21:00;;;;;;;4.03;3.17;;;9.40;62.70;;;;;;4784728;29;20040;-47
2022/10/11 03:23:29;;;;;;;4.72;3.42;;;9.40;62.70;;;;;;4785629;29;20070;-50
2022/10/11 03:25:56;;;;;;;4.93;3.33;;;9.30;62.70;;;;;;4789921;29;20043;-46
2022/10/11 03:28:23;;;;;;;5.03;2.78;;;9.30;62.70;;;;;;4787565;29;20051;-44
2022/10/11 03:30:51;;;;;;;5.45;3.30;;;9.30;62.80;;;;;;4786153;29;20043;-49
2022/10/11 03:33:19;;;;;;;3.22;2.92;;;9.30;62.80;;;;;;4786123;29;20540;-44
2022/10/11 03:35:47;;;;;;;3.13;2.70;;;9.30;62.70;;;;;;4795250;29;20058;-45
2022/10/11 03:38:17;;;;;;;4.15;2.50;;;9.20;62.70;;;;;;4789274;29;20082;-44
2022/10/11 03:40:47;;;;;;;5.15;3.50;;;9.20;62.80;;;;;;4785688;29;20055;-46
2022/10/11 03:43:13;;;;;;;3.28;2.70;;;9.20;62.80;;;;;;4794813;29;20043;-46
2022/10/11 03:45:41;;;;;;;4.30;2.78;;;9.20;62.90;;;;;;4792940;29;20047;-49
2022/10/11 03:48:08;;;;;;;2.85;2.58;;;9.10;62.80;;;;;;4785030;29;20044;-49
2022/10/11 03:50:36;;;;;;;3.42;3.03;;;9.10;62.90;;;;;;4785737;29;20050;-46
2022/10/11 03:53:04;;;;;;;3.35;3.05;;;9.10;62.90;;;;;;4790236;29;20147;-47
2022/10/11 03:55:33;;;;;;;3.63;3.20;;;9.10;62.90;;;;;;4787514;29;20043;-45
2022/10/11 03:58:01;;;;;;;3.03;2.72;;;9.10;63.00;;;;;;4785354;29;20516;-45
2022/10/11 04:00:27;;;;;;;3.35;2.53;;;9.00;63.10;;;;;;4785935;29;20122;-45
2022/10/11 04:02:57;;;;;;;2.95;2.45;;;9.10;63.20;;;;;;4789003;29;20070;-47
2022/10/11 04:05:27;;;;;;;2.70;2.40;;;9.10;63.30;;;;;;4786113;29;20062;-45
2022/10/11 04:07:54;;;;;;;3.55;2.60;;;9.10;63.30;;;;;;4785623;29;20055;-47
2022/10/11 04:10:24;;;;;;;2.63;2.42;;;9.00;63.10;;;;;;4783975;29;20532;-44
2022/10/11 04:12:51;;;;;;;3.92;2.75;;;9.00;63.20;;;;;;4786582;29;20412;-45
2022/10/11 04:15:18;;;;;;;3.90;2.50;;;9.00;63.10;;;;;;4782088;29;20516;-43
2022/10/11 04:17:45;;;;;;;2.70;2.45;;;9.00;63.20;;;;;;4785021;29;20059;-44
2022/10/11 04:20:12;;;;;;;3.90;2.65;;;9.00;63.10;;;;;;4785940;29;20126;-49
2022/10/11 04:22:39;;;;;;;3.38;3.08;;;9.00;63.00;;;;;;4787888;29;20043;-46
2022/10/11 04:25:07;;;;;;;3.90;2.70;;;9.00;63.10;;;;;;4785428;29;20051;-49
2022/10/11 04:27:34;;;;;;;3.42;2.55;;;8.90;63.10;;;;;;4783987;29;20043;-45
2022/10/11 04:30:01;;;;;;;4.65;2.80;;;8.90;63.10;;;;;;4786059;29;20417;-46
2022/10/11 04:32:27;;;;;;;2.60;2.40;;;8.90;63.00;;;;;;4786093;29;20047;-45
2022/10/11 04:34:54;;;;;;;3.40;2.60;;;8.90;63.00;;;;;;4784254;29;20051;-45
2022/10/11 04:37:23;;;;;;;3.38;2.90;;;8.90;63.10;;;;;;4788004;29;20492;-45
2022/10/11 04:39:50;;;;;;;3.00;2.47;;;8.80;63.00;;;;;;4786486;29;20039;-49
2022/10/11 04:42:16;;;;;;;3.60;2.45;;;8.80;63.00;;;;;;4791137;29;20396;-45
2022/10/11 04:44:43;;;;;;;3.25;2.55;;;8.80;63.00;;;;;;4783855;29;20051;-46
2022/10/11 04:47:10;;;;;;;3.20;2.53;;;8.80;63.00;;;;;;4793490;29;20043;-46
2022/10/11 04:49:37;;;;;;;4.22;2.25;;;8.80;62.90;;;;;;4798156;29;20121;-44
2022/10/11 04:52:03;;;;;;;2.35;2.22;;;8.80;62.90;;;;;;4797515;29;20061;-45
2022/10/11 04:54:31;;;;;;;2.70;2.42;;;8.80;63.00;;;;;;4785982;29;20055;-45
2022/10/11 04:56:58;;;;;;;2.60;2.40;;;8.70;63.00;;;;;;4789008;29;20051;-47
2022/10/11 04:59:24;;;;;;;4.45;2.40;;;8.70;63.00;;;;;;4788001;29;20082;-44
2022/10/11 05:01:53;;;;;;;3.25;2.15;;;8.70;63.00;;;;;;4790504;29;20086;-48
2022/10/11 05:04:20;;;;;;;2.85;1.98;;;8.70;63.00;;;;;;4784135;30;20432;-44
2022/10/11 05:06:47;;;;;;;3.60;1.70;;;8.70;63.00;;;;;;4784971;29;20412;-45
2022/10/11 05:09:13;;;;;;;3.60;2.50;;;8.60;63.00;;;;;;4788632;29;20047;-47
2022/10/11 05:11:40;;;;;;;2.83;1.70;;;8.60;63.00;;;;;;4787282;29;20051;-44
2022/10/11 05:14:07;;;;;;;1.95;1.83;;;8.60;63.00;;;;;;4793671;29;20061;-47
2022/10/11 05:16:34;;;;;;;2.33;2.08;;;8.60;62.90;;;;;;4794611;29;20077;-47
2022/10/11 05:19:01;;;;;;;3.00;2.25;;;8.60;62.90;;;;;;4793473;29;20057;-47
2022/10/11 05:21:29;;;;;;;4.57;2.60;;;8.50;62.90;;;;;;4784089;29;20051;-46
2022/10/11 05:23:56;;;;;;;3.70;2.28;;;8.50;63.00;;;;;;4782795;29;20085;-45
2022/10/11 05:26:24;;;;;;;3.22;2.60;;;8.50;62.90;;;;;;4780710;29;20525;-45
2022/10/11 05:28:51;;;;;;;2.40;2.20;;;8.50;62.90;;;;;;4779539;29;20083;-45
2022/10/11 05:31:18;;;;;;;2.35;2.13;;;8.50;62.90;;;;;;4794983;29;20047;-45
2022/10/11 05:33:46;;;;;;;2.40;2.20;;;8.50;62.90;;;;;;4790363;29;20044;-45
2022/10/11 05:36:13;;;;;;;2.42;2.22;;;8.40;62.90;;;;;;4788516;29;20050;-45
2022/10/11 05:38:40;;;;;;;2.50;2.30;;;8.40;62.90;;;;;;4786720;29;20505;-48
2022/10/11 05:41:08;;;;;;;2.65;2.13;;;8.40;62.80;;;;;;4786744;29;20066;-45
2022/10/11 05:43:35;;;;;;;2.90;2.38;;;8.40;62.90;;;;;;4787966;29;20066;-48
2022/10/11 05:46:01;;;;;;;4.22;2.17;;;8.30;62.90;;;;;;4793695;29;20054;-50
2022/10/11 05:48:29;;;;;;;3.15;2.80;;;8.30;62.80;;;;;;4786554;29;20150;-45
2022/10/11 05:51:01;;;;;;;3.75;3.38;;;8.30;62.80;;;;;;4798630;29;20456;-45
2022/10/11 05:53:30;;;;;;;2.35;2.15;;;8.30;62.90;;;;;;4790083;29;20062;-46
2022/10/11 05:55:57;;;;;;;4.68;3.45;;;8.30;62.90;;;;;;4791316;29;20051;-49
2022/10/11 05:58:24;;;;;;;3.72;2.67;;;8.20;63.00;;;;;;4788608;29;20055;-46
2022/10/11 06:00:51;;;;;;;3.90;2.78;;;8.20;63.00;;;;;;4788572;29;20052;-48
2022/10/11 06:03:19;;;;;;;3.05;2.67;;;8.20;63.00;;;;;;4797391;29;20126;-44
2022/10/11 06:05:46;;;;;;;3.20;2.75;;;8.20;63.00;;;;;;4792112;29;20061;-47
2022/10/11 06:08:13;;;;;;;2.58;2.38;;;8.20;63.70;;;;;;4785215;29;20054;-45
2022/10/11 06:10:40;;;;;;;3.55;2.72;;;8.20;63.20;;;;;;4790429;29;20071;-48
2022/10/11 06:13:09;;;;;;;3.10;2.60;;;8.20;63.20;;;;;;4785941;29;20058;-45
2022/10/11 06:15:37;;;;;;;2.38;2.17;;;8.20;63.30;;;;;;4796953;29;20054;-46
2022/10/11 06:18:04;;;;;;;2.90;2.40;;;8.20;63.30;;;;;;4799790;29;20062;-45
2022/10/11 06:20:31;;;;;;;3.03;2.20;;;8.20;63.50;;;;;;4800171;29;20051;-45
2022/10/11 06:22:58;;;;;;;2.70;2.50;;;8.20;63.50;;;;;;4795230;29;20100;-45
2022/10/11 06:25:24;;;;;;;3.60;2.75;;;8.20;63.60;;;;;;4791469;29;20049;-49
2022/10/11 06:27:51;;;;;;;3.45;2.65;;;8.20;63.70;;;;;;4791257;29;20039;-46
2022/10/11 06:30:20;;;;;;;2.67;2.47;;;8.20;63.70;;;;;;4789793;29;20058;-44
2022/10/11 06:32:47;;;;;;;3.15;2.58;;;8.20;63.80;;;;;;4789571;29;20495;-47
2022/10/11 06:35:13;;;;;;;2.38;2.17;;;8.20;63.90;;;;;;4798441;29;20055;-50
2022/10/11 06:37:41;;;;;;;4.45;2.83;;;8.20;64.00;;;;;;4785656;29;20432;-45
2022/10/11 06:40:08;;;;;;;3.70;3.10;;;8.20;64.10;;;;;;4786559;29;20627;-45
2022/10/11 06:42:35;;;;;;;4.95;2.42;;;8.30;64.30;;;;;;4787782;29;20039;-46
2022/10/11 06:45:02;;;;;;;3.42;2.95;;;8.30;64.30;;;;;;4790724;29;20054;-48
2022/10/11 06:47:28;;;;;;;5.00;2.92;;;8.30;64.30;;;;;;4786185;29;20047;-45
2022/10/11 06:49:55;;;;;;;5.00;2.95;;;8.40;64.40;;;;;;4787304;29;20496;-45
2022/10/11 06:52:22;;;;;;;5.47;2.78;;;8.40;64.40;;;;;;4787467;29;20057;-45
2022/10/11 06:54:48;;;;;;;5.03;3.28;;;8.40;64.50;;;;;;4787416;29;20055;-46
2022/10/11 06:57:15;;;;;;;4.32;2.97;;;8.40;64.60;;;;;;4786037;29;20050;-45
2022/10/11 06:59:42;;;;;;;4.13;3.40;;;8.50;64.70;;;;;;4789910;29;20531;-44
2022/10/11 07:02:11;;;;;;;5.53;3.80;;;8.50;64.80;;;;;;4792508;29;20450;-45
2022/10/11 07:04:38;;;;;;;7.13;3.85;;;8.60;65.00;;;;;;4812663;24;20051;-44
2022/10/11 07:07:04;;;;;;;4.43;3.97;;;8.60;65.00;;;;;;4804730;29;20058;-44
2022/10/11 07:09:34;;;;;;;5.93;3.70;;;8.60;65.10;;;;;;4801730;29;21348;-43
2022/10/11 07:12:03;;;;;;;5.20;4.38;;;8.60;65.20;;;;;;4800049;29;20142;-47
2022/10/11 07:14:30;;;;;;;5.72;5.13;;;8.70;65.30;;;;;;4804359;29;20050;-43
2022/10/11 07:16:57;;;;;;;5.75;4.57;;;8.80;65.50;;;;;;4804915;29;20055;-46
2022/10/11 07:19:23;;;;;;;8.10;5.40;;;8.80;65.60;;;;;;4802996;29;20059;-45
2022/10/11 07:21:50;;;;;;;9.15;6.15;;;8.80;65.80;;;;;;4801512;29;20038;-44
2022/10/11 07:24:17;;;;;;;9.65;5.68;;;8.90;65.90;;;;;;4803166;29;20512;-44
2022/10/11 07:26:43;;;;;;;7.07;5.45;;;9.00;66.10;;;;;;4799112;29;20126;-44
2022/10/11 07:29:10;;;;;;;8.88;4.85;;;9.00;66.20;;;;;;4801143;29;20054;-44
2022/10/11 07:31:40;;;;;;;7.75;4.40;;;9.10;66.50;;;;;;4804245;29;20082;-44
2022/10/11 07:34:06;;;;;;;5.72;4.78;;;9.20;67.00;;;;;;4804047;29;20051;-46
2022/10/11 07:36:33;;;;;;;6.72;4.40;;;9.20;66.90;;;;;;4802395;29;20419;-44
2022/10/11 07:39:03;;;;;;;5.72;4.15;;;9.30;67.00;;;;;;4799810;29;20050;-45
2022/10/11 07:41:30;;;;;;;6.10;3.58;;;9.40;67.40;;;;;;4803658;29;20039;-48
2022/10/11 07:43:57;;;;;;;8.10;4.97;;;9.50;67.30;;;;;;4803495;29;20413;-44
2022/10/11 07:46:23;;;;;;;5.97;4.78;;;9.60;67.40;;;;;;4801226;29;20058;-46
2022/10/11 07:48:50;;;;;;;7.50;5.20;;;9.70;67.50;;;;;;4797742;29;20074;-48
2022/10/11 07:51:19;;;;;;;6.75;5.43;;;9.70;67.60;;;;;;4804113;29;20049;-46
2022/10/11 07:53:49;;;;;;;9.70;5.95;;;9.80;67.90;;;;;;4803432;29;20059;-46
2022/10/11 07:56:27;;;;;;;9.52;5.45;;;9.90;68.00;;;;;;4803823;29;20054;-44
2022/10/11 07:58:59;;;;;;;8.00;6.18;;;10.00;68.10;;;;;;4800203;29;20046;-48
2022/10/11 08:01:27;;;;;;;8.32;5.22;;;10.00;68.30;;;;;;4803745;29;20125;-48
2022/10/11 08:03:55;;;;;;;8.48;5.38;;;10.10;68.10;;;;;;4814577;29;20074;-44
2022/10/11 08:06:28;;;;;;;7.45;5.85;;;10.20;68.10;;;;;;4799171;29;20046;-45
2022/10/11 08:08:58;;;;;;;8.88;7.07;;;10.30;68.30;;;;;;4802873;29;20071;-44
2022/10/11 08:11:31;;;;;;;8.77;5.18;;;10.30;68.60;;;;;;4803764;29;20053;-46
2022/10/11 08:13:59;;;;;;;9.00;5.88;;;10.40;68.60;;;;;;4803787;29;20053;-44
2022/10/11 08:16:28;;;;;;;10.25;5.70;;;10.40;68.80;;;;;;4800311;29;20055;-46
2022/10/11 08:18:55;;;;;;;13.88;6.38;;;10.50;68.90;;;;;;4802126;29;20063;-45
2022/10/11 08:21:23;;;;;;;9.45;6.20;;;10.60;69.00;;;;;;4815646;29;20054;-44
2022/10/11 08:23:50;;;;;;;10.50;6.13;;;10.60;69.30;;;;;;4799545;29;20055;-46
2022/10/11 08:26:16;;;;;;;8.90;5.93;;;10.70;69.40;;;;;;4798307;29;20723;-46
2022/10/11 08:28:43;;;;;;;8.30;5.47;;;10.70;69.40;;;;;;4802916;29;20103;-46
2022/10/11 08:31:14;;;;;;;10.57;5.90;;;10.80;69.70;;;;;;4803334;29;20069;-47
2022/10/11 08:33:42;;;;;;;8.65;5.80;;;10.90;70.40;;;;;;4798421;29;20130;-46
2022/10/11 08:36:09;;;;;;;11.30;6.63;;;10.90;70.20;;;;;;4802086;29;20047;-45
2022/10/11 08:38:37;;;;;;;8.15;6.10;;;11.00;70.30;;;;;;4803110;29;20531;-46
2022/10/11 08:41:34;;;;;;;12.75;7.00;;;11.00;70.30;;;;;;4801711;29;20095;-45
2022/10/11 08:44:19;;;;;;;7.00;5.32;;;11.10;71.60;;;;;;4798777;29;20081;-47
2022/10/11 08:46:51;;;;;;;9.68;6.03;;;11.10;71.40;;;;;;4799758;29;20066;-44
2022/10/11 08:49:31;;;;;;;10.75;5.72;;;11.20;70.90;;;;;;4803067;29;20099;-46
2022/10/11 08:52:03;;;;;;;14.55;6.30;;;11.30;70.80;;;;;;4798400;29;20048;-48
2022/10/11 08:55:03;;;;;;;8.38;5.43;;;11.30;71.20;;;;;;4798468;29;20493;-48
2022/10/11 08:57:34;;;;;;;8.07;5.07;;;11.40;71.80;;;;;;4798086;29;20129;-46
2022/10/11 09:00:03;;;;;;;7.40;5.30;;;11.50;71.00;;;;;;4801874;29;20126;-47
2022/10/11 09:03:19;;;;;;;12.83;5.20;;;11.50;71.10;;;;;;4794508;29;20058;-49
2022/10/11 09:06:29;;;;;;;9.65;4.47;;;11.60;72.10;;;;;;4801242;29;20055;-46
2022/10/11 09:09:23;;;;;;;10.23;5.15;;;11.70;72.10;;;;;;4811563;29;20137;-47
2022/10/11 09:11:56;;;;;;;10.27;5.20;;;11.80;71.90;;;;;;4805258;29;20051;-47
2022/10/11 09:14:41;;;;;;;7.60;4.18;;;11.90;71.30;;;;;;4800183;29;20050;-43
2022/10/11 09:17:22;;;;;;;10.15;4.20;;;11.90;71.70;;;;;;4806693;29;20045;-48
2022/10/11 09:20:17;;;;;;;9.40;4.47;;;12.00;72.20;;;;;;4814074;29;20157;-44
2022/10/11 09:23:10;;;;;;;12.13;4.80;;;12.00;72.20;;;;;;4802395;29;20086;-47
2022/10/11 09:25:48;;;;;;;8.57;3.92;;;12.10;71.50;;;;;;4807449;29;20111;-48
2022/10/11 09:28:42;;;;;;;11.57;5.15;;;12.20;71.10;;;;;;4817064;29;20714;-45
2022/10/11 09:31:10;;;;;;;7.88;4.55;;;12.20;71.20;;;;;;4800985;29;20696;-46
2022/10/11 09:33:50;;;;;;;10.18;4.53;;;12.30;70.60;;;;;;4809407;29;20055;-49
2022/10/11 09:36:38;;;;;;;6.60;4.30;;;12.30;71.00;;;;;;4806186;29;20050;-45
2022/10/11 09:39:23;;;;;;;7.45;4.28;;;12.40;71.40;;;;;;4804161;29;20051;-45
2022/10/11 09:42:08;;;;;;;7.28;2.67;;;12.50;70.60;;;;;;4802165;29;20051;-47
2022/10/11 09:44:38;;;;;;;7.95;3.42;;;12.60;70.80;;;;;;4806244;29;20047;-46
2022/10/11 09:47:05;;;;;;;10.45;3.78;;;12.60;70.50;;;;;;4805940;29;20050;-48
2022/10/11 09:49:39;;;;;;;9.57;3.38;;;12.70;70.50;;;;;;4801397;29;20504;-48
2022/10/11 09:52:13;;;;;;;8.88;3.55;;;12.80;70.40;;;;;;4806136;29;20057;-46
2022/10/11 09:54:42;;;;;;;7.13;3.13;;;12.80;70.20;;;;;;4807623;29;20054;-47
2022/10/11 09:57:25;;;;;;;9.52;3.85;;;12.90;69.90;;;;;;4809336;29;21055;-51
2022/10/11 10:00:04;;;;;;;5.50;3.40;;;13.00;70.20;;;;;;4799864;29;20324;-55
2022/10/11 10:02:56;;;;;;;7.57;2.88;;;13.10;70.10;;;;;;4802649;29;20105;-55
2022/10/11 10:05:23;;;;;;;9.73;2.95;;;13.20;69.50;;;;;;4786686;29;20120;-53
2022/10/11 10:08:21;;;;;;;7.88;3.03;;;13.20;69.20;;;;;;4796538;29;20386;-54
2022/10/11 10:10:59;;;;;;;6.43;3.80;;;13.30;69.60;;;;;;4804239;29;20154;-54
2022/10/11 10:13:40;;;;;;;21.83;12.15;;;13.40;68.90;;;;;;4812719;29;20583;-55
2022/10/11 10:16:31;;;;;;;15.82;6.88;;;13.50;68.60;;;;;;4816053;29;20497;-53
2022/10/11 10:19:04;;;;;;;10.85;4.70;;;13.50;68.70;;;;;;4797541;29;20054;-50
2022/10/11 10:21:42;;;;;;;8.13;3.40;;;13.60;68.30;;;;;;4802991;29;20078;-52
2022/10/11 10:24:18;;;;;;;10.73;5.50;;;13.70;68.10;;;;;;4800913;29;20043;-54
2022/10/11 10:27:24;;;;;;;12.82;5.13;;;13.70;67.60;;;;;;4801584;29;20382;-50
2022/10/11 10:30:09;;;;;;;9.88;3.25;;;13.80;68.00;;;;;;4801967;29;20595;-52
2022/10/11 10:32:51;;;;;;;8.95;2.90;;;13.90;67.60;;;;;;4797980;29;20105;-53
2022/10/11 10:35:31;;;;;;;10.80;2.05;;;13.90;67.30;;;;;;4804095;29;20420;-51
2022/10/11 10:38:10;;;;;;;4.35;1.85;;;14.00;66.50;;;;;;4799264;29;20192;-55
2022/10/11 10:40:40;;;;;;;4.63;1.58;;;14.10;67.00;;;;;;4804369;29;20066;-50
2022/10/11 10:43:16;;;;;;;7.70;1.90;;;14.10;66.20;;;;;;4804002;29;20145;-53
2022/10/11 10:46:03;;;;;;;6.50;1.80;;;14.10;65.60;;;;;;4801050;29;20061;-52
2022/10/11 10:48:45;;;;;;;4.28;1.63;;;14.20;65.60;;;;;;4802211;29;20039;-52
2022/10/11 10:51:32;;;;;;;3.13;1.50;;;14.30;64.90;;;;;;4799461;29;20050;-55
2022/10/11 10:54:23;;;;;;;5.95;2.20;;;14.30;64.70;;;;;;4803899;29;20047;-52
2022/10/11 10:56:56;;;;;;;4.35;1.75;;;14.40;64.40;;;;;;4800399;29;20055;-53
2022/10/11 10:59:35;;;;;;;4.93;2.03;;;14.50;64.60;;;;;;4802678;29;20049;-55
2022/10/11 11:02:33;;;;;;;4.50;1.60;;;14.50;64.60;;;;;;4803795;29;20073;-54
2022/10/11 11:05:38;;;;;;;2.35;0.95;;;14.60;63.50;;;;;;4798541;29;20487;-53
2022/10/11 11:08:18;;;;;;;7.20;1.40;;;14.70;62.50;;;;;;4802704;29;20118;-54
2022/10/11 11:11:27;;;;;;;6.97;1.63;;;14.80;62.70;;;;;;4801259;29;20047;-52
2022/10/11 11:14:33;;;;;;;4.57;1.15;;;14.80;62.10;;;;;;4798629;29;20580;-54
2022/10/11 11:17:20;;;;;;;4.65;1.20;;;14.90;61.50;;;;;;4797796;29;20062;-52
2022/10/11 11:20:02;;;;;;;4.78;1.15;;;15.00;62.10;;;;;;4803421;29;20047;-52
2022/10/11 11:22:44;;;;;;;7.50;2.40;;;15.10;61.60;;;;;;4803769;29;20047;-53
2022/10/11 11:25:55;;;;;;;4.97;1.52;;;15.20;61.00;;;;;;4800611;29;20042;-54
2022/10/11 11:28:46;;;;;;;3.50;1.48;;;15.30;60.80;;;;;;4795439;29;20046;-53
2022/10/11 11:31:37;;;;;;;3.67;1.33;;;15.40;60.50;;;;;;4797028;29;20680;-54
2022/10/11 11:34:10;;;;;;;3.25;1.02;;;15.50;59.60;;;;;;4798279;29;20047;-53
2022/10/11 11:37:02;;;;;;;6.22;1.15;;;15.60;58.90;;;;;;4803568;29;20100;-53
2022/10/11 11:39:34;;;;;;;3.90;1.25;;;15.60;58.20;;;;;;4786723;29;20055;-55
2022/10/11 11:42:07;;;;;;;4.15;1.65;;;15.70;58.90;;;;;;4788067;29;20053;-55
2022/10/11 11:44:38;;;;;;;2.55;0.85;;;15.80;58.10;;;;;;4800575;29;20524;-54
2022/10/11 11:47:12;;;;;;;3.50;1.10;;;15.80;58.20;;;;;;4796416;29;20070;-54
2022/10/11 11:50:00;;;;;;;8.75;1.33;;;15.80;57.10;;;;;;4804428;29;20571;-54
2022/10/11 11:52:43;;;;;;;4.82;1.33;;;15.90;56.40;;;;;;4796498;29;20046;-54
2022/10/11 11:55:35;;;;;;;6.38;1.27;;;15.90;56.20;;;;;;4803629;29;20401;-51
2022/10/11 11:58:29;;;;;;;4.60;1.38;;;15.90;56.60;;;;;;4804012;29;20047;-52
2022/10/11 12:01:13;;;;;;;3.20;1.13;;;15.90;57.10;;;;;;4801178;29;20047;-54
2022/10/11 12:03:46;;;;;;;4.13;2.00;;;15.90;57.10;;;;;;4801769;29;20051;-53
2022/10/11 12:06:21;;;;;;;8.80;1.40;;;15.90;57.20;;;;;;4803041;29;20050;-54
2022/10/11 12:09:03;;;;;;;3.55;1.40;;;16.00;57.30;;;;;;4801119;29;20066;-54
2022/10/11 12:11:53;;;;;;;4.13;2.10;;;16.00;57.00;;;;;;4798349;29;20047;-52
2022/10/11 12:14:31;;;;;;;7.15;2.10;;;16.00;56.70;;;;;;4804425;29;20444;-55
2022/10/11 12:17:11;;;;;;;4.38;1.60;;;16.10;57.10;;;;;;4805410;29;20057;-53
2022/10/11 12:19:41;;;;;;;4.93;2.13;;;16.20;56.80;;;;;;4802354;29;20707;-52
2022/10/11 12:22:34;;;;;;;5.50;1.42;;;16.20;57.20;;;;;;4803256;29;20051;-52
2022/10/11 12:25:20;;;;;;;5.28;1.70;;;16.40;56.80;;;;;;4804003;29;20408;-52
2022/10/11 12:27:50;;;;;;;5.35;2.50;;;16.50;57.10;;;;;;4803491;29;20069;-55
2022/10/11 12:30:47;;;;;;;3.85;1.45;;;16.50;57.20;;;;;;4800051;29;20047;-54
2022/10/11 12:33:21;;;;;;;3.55;1.95;;;16.60;56.60;;;;;;4803697;29;20054;-50
2022/10/11 12:35:51;;;;;;;;;;;16.70;56.50;;;;;;4803094;29;20059;-54
2022/10/11 12:38:39;;;;;;;3.83;1.65;;;16.80;57.20;;;;;;4799711;29;19948;-52
2022/10/11 12:41:08;;;;;;;2.88;1.42;;;16.90;56.10;;;;;;4802784;29;20043;-52
2022/10/11 12:43:47;;;;;;;4.35;1.55;;;17.00;56.80;;;;;;4802453;29;20527;-52
2022/10/11 12:46:37;;;;;;;7.60;1.95;;;17.00;56.20;;;;;;4800673;29;20409;-50
2022/10/11 12:49:32;;;;;;;5.25;1.73;;;17.10;55.70;;;;;;4798334;29;20047;-50
2022/10/11 12:52:02;;;;;;;4.78;1.40;;;17.20;56.00;;;;;;4802685;29;20437;-52
2022/10/11 12:54:48;;;;;;;5.93;1.38;;;17.20;55.80;;;;;;4802810;29;20057;-52
2022/10/11 12:57:39;;;;;;;4.50;1.45;;;17.20;55.60;;;;;;4801210;29;20512;-51
2022/10/11 13:00:28;;;;;;;3.28;1.75;;;17.20;55.00;;;;;;4803242;29;20062;-52
2022/10/11 13:02:58;;;;;;;5.18;1.77;;;17.20;55.20;;;;;;4803242;29;20681;-53
2022/10/11 13:05:37;;;;;;;5.88;1.65;;;17.20;55.30;;;;;;4802588;29;20066;-55
2022/10/11 13:08:21;;;;;;;5.85;1.40;;;17.20;54.70;;;;;;4799447;29;20039;-55
2022/10/11 13:10:48;;;;;;;5.80;2.40;;;17.20;54.70;;;;;;4824084;24;20051;-53
2022/10/11 13:13:21;;;;;;;7.22;1.90;;;17.10;55.00;;;;;;4797255;29;20043;-50
2022/10/11 13:15:50;;;;;;;2.58;0.98;;;17.00;54.50;;;;;;4803110;29;20047;-49
2022/10/11 13:18:17;;;;;;;6.32;1.80;;;17.00;55.00;;;;;;4810896;29;20493;-54
2022/10/11 13:20:47;;;;;;;6.15;2.47;;;17.10;55.40;;;;;;4814452;29;20052;-50
2022/10/11 13:23:19;;;;;;;4.40;1.40;;;17.10;55.00;;;;;;4801317;29;20045;-51
2022/10/11 13:25:49;;;;;;;6.78;2.28;;;17.10;54.50;;;;;;4798048;29;20061;-53
2022/10/11 13:28:18;;;;;;;4.53;1.30;;;17.20;54.40;;;;;;4801796;29;20122;-51